sensor_id;sensor_type;location;lat;lon;timestamp;pressure;altitude;pressure_sealevel;temperature;humidity
47761;BME280;33524;55.434;38.520;2023-04-26T00:01:09;98903.63;;;9.51;100.00
47761;BME280;33524;55.434;38.520;2023-04-26T00:03:38;98898.22;;;9.53;100.00
47761;BME280;33524;55.434;38.520;2023-04-26T00:06:07;98898.91;;;9.55;100.00
47761;BME280;33524;55.434;38.520;2023-04-26T00:08:36;98902.75;;;9.50;100.00
47761;BME280;33524;55.434;38.520;2023-04-26T00:11:04;98895.31;;;9.46;100.00
47761;BME280;33524;55.434;38.520;2023-04-26T00:13:32;98892.56;;;9.47;100.00
47761;BME280;33524;55.434;38.520;2023-04-26T00:16:00;98895.00;;;9.59;100.00
47761;BME280;33524;55.434;38.520;2023-04-26T00:18:29;98884.62;;;9.67;100.00
47761;BME280;33524;55.434;38.520;2023-04-26T00:20:58;98881.22;;;9.57;100.00
47761;BME280;33524;55.434;38.520;2023-04-26T00:23:26;98883.16;;;9.55;100.00
47761;BME280;33524;55.434;38.520;2023-04-26T00:25:55;98881.50;;;9.54;100.00
47761;BME280;33524;55.434;38.520;2023-04-26T00:28:24;98882.88;;;9.58;100.00
47761;BME280;33524;55.434;38.520;2023-04-26T00:30:52;98872.94;;;9.52;100.00
47761;BME280;33524;55.434;38.520;2023-04-26T00:33:20;98869.75;;;9.58;100.00
47761;BME280;33524;55.434;38.520;2023-04-26T00:35:48;98870.88;;;9.55;100.00
47761;BME280;33524;55.434;38.520;2023-04-26T00:38:17;98862.44;;;9.52;100.00
47761;BME280;33524;55.434;38.520;2023-04-26T00:40:45;98870.31;;;9.61;100.00
47761;BME280;33524;55.434;38.520;2023-04-26T00:43:14;98862.44;;;9.61;100.00
47761;BME280;33524;55.434;38.520;2023-04-26T00:45:42;98863.94;;;9.64;100.00
47761;BME280;33524;55.434;38.520;2023-04-26T00:48:11;98852.03;;;9.69;100.00
47761;BME280;33524;55.434;38.520;2023-04-26T00:50:39;98855.38;;;9.62;100.00
47761;BME280;33524;55.434;38.520;2023-04-26T00:53:08;98854.38;;;9.63;100.00
47761;BME280;33524;55.434;38.520;2023-04-26T00:55:50;98849.31;;;9.61;100.00
47761;BME280;33524;55.434;38.520;2023-04-26T00:58:22;98852.44;;;9.65;100.00
47761;BME280;33524;55.434;38.520;2023-04-26T01:01:15;98849.16;;;9.63;100.00
47761;BME280;33524;55.434;38.520;2023-04-26T01:03:56;98845.44;;;9.56;100.00
47761;BME280;33524;55.434;38.520;2023-04-26T01:06:28;98844.06;;;9.52;100.00
47761;BME280;33524;55.434;38.520;2023-04-26T01:09:12;98840.47;;;9.53;100.00
47761;BME280;33524;55.434;38.520;2023-04-26T01:11:42;98828.03;;;9.55;100.00
47761;BME280;33524;55.434;38.520;2023-04-26T01:14:13;98833.44;;;9.53;100.00
47761;BME280;33524;55.434;38.520;2023-04-26T01:16:41;98823.78;;;9.54;100.00
47761;BME280;33524;55.434;38.520;2023-04-26T01:19:14;98823.19;;;9.60;100.00
47761;BME280;33524;55.434;38.520;2023-04-26T01:21:44;98826.81;;;9.49;100.00
47761;BME280;33524;55.434;38.520;2023-04-26T01:24:13;98826.53;;;9.42;100.00
47761;BME280;33524;55.434;38.520;2023-04-26T01:26:42;98820.03;;;9.46;100.00
47761;BME280;33524;55.434;38.520;2023-04-26T01:29:22;98818.53;;;9.44;100.00
47761;BME280;33524;55.434;38.520;2023-04-26T01:32:03;98816.56;;;9.56;100.00
47761;BME280;33524;55.434;38.520;2023-04-26T01:34:32;98809.97;;;9.52;100.00
47761;BME280;33524;55.434;38.520;2023-04-26T01:37:01;98809.97;;;9.52;100.00
47761;BME280;33524;55.434;38.520;2023-04-26T01:39:29;98802.19;;;9.60;100.00
47761;BME280;33524;55.434;38.520;2023-04-26T01:42:09;98797.22;;;9.57;100.00
47761;BME280;33524;55.434;38.520;2023-04-26T01:44:38;98795.16;;;9.50;100.00
47761;BME280;33524;55.434;38.520;2023-04-26T01:47:06;98794.50;;;9.48;100.00
47761;BME280;33524;55.434;38.520;2023-04-26T01:49:34;98797.53;;;9.54;100.00
47761;BME280;33524;55.434;38.520;2023-04-26T01:52:03;98786.72;;;9.57;100.00
47761;BME280;33524;55.434;38.520;2023-04-26T01:54:31;98785.31;;;9.62;100.00
47761;BME280;33524;55.434;38.520;2023-04-26T01:57:00;98784.16;;;9.75;100.00
47761;BME280;33524;55.434;38.520;2023-04-26T01:59:29;98783.13;;;9.58;100.00
47761;BME280;33524;55.434;38.520;2023-04-26T02:01:58;98786.03;;;9.55;100.00
47761;BME280;33524;55.434;38.520;2023-04-26T02:04:27;98775.66;;;9.63;100.00
47761;BME280;33524;55.434;38.520;2023-04-26T02:06:55;98779.13;;;9.63;100.00
47761;BME280;33524;55.434;38.520;2023-04-26T02:09:23;98774.03;;;9.52;100.00
47761;BME280;33524;55.434;38.520;2023-04-26T02:11:52;98778.16;;;9.55;100.00
47761;BME280;33524;55.434;38.520;2023-04-26T02:14:20;98775.72;;;9.53;100.00
47761;BME280;33524;55.434;38.520;2023-04-26T02:16:48;98772.66;;;9.58;100.00
47761;BME280;33524;55.434;38.520;2023-04-26T02:19:18;98768.34;;;9.57;100.00
47761;BME280;33524;55.434;38.520;2023-04-26T02:21:55;98763.06;;;9.66;100.00
47761;BME280;33524;55.434;38.520;2023-04-26T02:24:24;98751.87;;;9.64;100.00
47761;BME280;33524;55.434;38.520;2023-04-26T02:26:52;98763.75;;;9.68;100.00
47761;BME280;33524;55.434;38.520;2023-04-26T02:29:21;98757.69;;;9.68;100.00
47761;BME280;33524;55.434;38.520;2023-04-26T02:32:10;98756.06;;;9.57;100.00
47761;BME280;33524;55.434;38.520;2023-04-26T02:34:39;98758.53;;;9.59;100.00
47761;BME280;33524;55.434;38.520;2023-04-26T02:37:07;98754.59;;;9.73;100.00
47761;BME280;33524;55.434;38.520;2023-04-26T02:39:35;98753.78;;;9.72;100.00
47761;BME280;33524;55.434;38.520;2023-04-26T02:42:08;98757.06;;;9.84;100.00
47761;BME280;33524;55.434;38.520;2023-04-26T02:44:37;98751.84;;;9.74;100.00
47761;BME280;33524;55.434;38.520;2023-04-26T02:47:07;98749.13;;;9.66;100.00
47761;BME280;33524;55.434;38.520;2023-04-26T02:49:35;98754.25;;;9.85;100.00
47761;BME280;33524;55.434;38.520;2023-04-26T02:52:03;98750.06;;;9.65;100.00
47761;BME280;33524;55.434;38.520;2023-04-26T02:54:32;98746.38;;;9.67;100.00
47761;BME280;33524;55.434;38.520;2023-04-26T02:57:00;98745.50;;;9.67;100.00
47761;BME280;33524;55.434;38.520;2023-04-26T02:59:28;98749.34;;;9.73;100.00
47761;BME280;33524;55.434;38.520;2023-04-26T03:01:57;98746.00;;;9.80;100.00
47761;BME280;33524;55.434;38.520;2023-04-26T03:04:25;98741.00;;;9.87;100.00
47761;BME280;33524;55.434;38.520;2023-04-26T03:06:53;98744.66;;;9.76;100.00
47761;BME280;33524;55.434;38.520;2023-04-26T03:09:21;98747.38;;;9.84;100.00
47761;BME280;33524;55.434;38.520;2023-04-26T03:11:50;98743.75;;;9.85;100.00
47761;BME280;33524;55.434;38.520;2023-04-26T03:14:21;98738.50;;;9.85;100.00
47761;BME280;33524;55.434;38.520;2023-04-26T03:16:49;98739.62;;;9.83;100.00
47761;BME280;33524;55.434;38.520;2023-04-26T03:19:18;98734.97;;;9.77;100.00
47761;BME280;33524;55.434;38.520;2023-04-26T03:21:46;98729.47;;;9.70;100.00
47761;BME280;33524;55.434;38.520;2023-04-26T03:24:14;98734.25;;;9.84;100.00
47761;BME280;33524;55.434;38.520;2023-04-26T03:26:43;98722.47;;;9.88;100.00
47761;BME280;33524;55.434;38.520;2023-04-26T03:29:11;98730.34;;;10.06;100.00
47761;BME280;33524;55.434;38.520;2023-04-26T03:31:39;98720.81;;;9.87;100.00
47761;BME280;33524;55.434;38.520;2023-04-26T03:34:07;98726.22;;;10.04;100.00
47761;BME280;33524;55.434;38.520;2023-04-26T03:36:35;98728.81;;;10.14;100.00
47761;BME280;33524;55.434;38.520;2023-04-26T03:39:04;98724.09;;;10.17;100.00
47761;BME280;33524;55.434;38.520;2023-04-26T03:41:32;98722.28;;;10.18;100.00
47761;BME280;33524;55.434;38.520;2023-04-26T03:44:03;98723.00;;;10.38;100.00
47761;BME280;33524;55.434;38.520;2023-04-26T03:46:32;98719.28;;;10.30;100.00
47761;BME280;33524;55.434;38.520;2023-04-26T03:49:00;98719.16;;;10.50;100.00
47761;BME280;33524;55.434;38.520;2023-04-26T03:51:28;98712.34;;;10.65;100.00
47761;BME280;33524;55.434;38.520;2023-04-26T03:53:57;98715.94;;;10.64;100.00
47761;BME280;33524;55.434;38.520;2023-04-26T03:56:26;98708.25;;;10.45;100.00
47761;BME280;33524;55.434;38.520;2023-04-26T03:58:54;98711.03;;;10.43;100.00
47761;BME280;33524;55.434;38.520;2023-04-26T04:01:23;98705.16;;;10.49;100.00
47761;BME280;33524;55.434;38.520;2023-04-26T04:03:53;98708.78;;;10.48;100.00
47761;BME280;33524;55.434;38.520;2023-04-26T04:06:22;98703.00;;;10.45;100.00
47761;BME280;33524;55.434;38.520;2023-04-26T04:08:49;98704.56;;;10.56;100.00
47761;BME280;33524;55.434;38.520;2023-04-26T04:11:20;98707.09;;;10.65;100.00
47761;BME280;33524;55.434;38.520;2023-04-26T04:13:48;98711.56;;;10.47;100.00
47761;BME280;33524;55.434;38.520;2023-04-26T04:16:16;98698.91;;;10.68;100.00
47761;BME280;33524;55.434;38.520;2023-04-26T04:18:44;98708.62;;;10.94;100.00
47761;BME280;33524;55.434;38.520;2023-04-26T04:21:13;98701.22;;;10.72;100.00
47761;BME280;33524;55.434;38.520;2023-04-26T04:23:42;98703.59;;;10.57;100.00
47761;BME280;33524;55.434;38.520;2023-04-26T04:26:11;98705.25;;;10.84;100.00
47761;BME280;33524;55.434;38.520;2023-04-26T04:28:39;98693.62;;;10.68;100.00
47761;BME280;33524;55.434;38.520;2023-04-26T04:31:12;98700.22;;;10.73;100.00
47761;BME280;33524;55.434;38.520;2023-04-26T04:33:40;98692.78;;;10.86;100.00
47761;BME280;33524;55.434;38.520;2023-04-26T04:36:12;98697.03;;;10.87;100.00
47761;BME280;33524;55.434;38.520;2023-04-26T04:38:40;98699.00;;;10.85;100.00
47761;BME280;33524;55.434;38.520;2023-04-26T04:41:08;98703.03;;;10.97;100.00
47761;BME280;33524;55.434;38.520;2023-04-26T04:43:37;98691.22;;;11.01;100.00
47761;BME280;33524;55.434;38.520;2023-04-26T04:46:06;98694.97;;;10.73;100.00
47761;BME280;33524;55.434;38.520;2023-04-26T04:48:37;98695.47;;;10.94;100.00
47761;BME280;33524;55.434;38.520;2023-04-26T04:51:05;98694.97;;;10.73;100.00
47761;BME280;33524;55.434;38.520;2023-04-26T04:53:35;98697.03;;;10.87;100.00
47761;BME280;33524;55.434;38.520;2023-04-26T04:56:03;98697.66;;;10.81;100.00
47761;BME280;33524;55.434;38.520;2023-04-26T04:58:32;98692.13;;;10.84;100.00
47761;BME280;33524;55.434;38.520;2023-04-26T05:01:01;98701.88;;;10.92;100.00
47761;BME280;33524;55.434;38.520;2023-04-26T05:03:29;98691.50;;;10.90;100.00
47761;BME280;33524;55.434;38.520;2023-04-26T05:06:02;98700.78;;;11.02;100.00
47761;BME280;33524;55.434;38.520;2023-04-26T05:08:30;98679.47;;;10.87;100.00
47761;BME280;33524;55.434;38.520;2023-04-26T05:10:58;98678.97;;;11.18;100.00
47761;BME280;33524;55.434;38.520;2023-04-26T05:13:27;98694.66;;;11.28;100.00
47761;BME280;33524;55.434;38.520;2023-04-26T05:15:55;98691.03;;;10.95;100.00
47761;BME280;33524;55.434;38.520;2023-04-26T05:18:23;98692.22;;;11.00;100.00
47761;BME280;33524;55.434;38.520;2023-04-26T05:20:52;98673.84;;;11.08;100.00
47761;BME280;33524;55.434;38.520;2023-04-26T05:23:20;98687.19;;;10.89;100.00
47761;BME280;33524;55.434;38.520;2023-04-26T05:25:48;98686.00;;;11.09;100.00
47761;BME280;33524;55.434;38.520;2023-04-26T05:28:18;98692.88;;;11.02;100.00
47761;BME280;33524;55.434;38.520;2023-04-26T05:30:47;98687.53;;;11.20;100.00
47761;BME280;33524;55.434;38.520;2023-04-26T05:33:17;98686.22;;;11.24;100.00
47761;BME280;33524;55.434;38.520;2023-04-26T05:35:45;98696.22;;;11.13;100.00
47761;BME280;33524;55.434;38.520;2023-04-26T05:38:14;98697.16;;;11.38;97.91
47761;BME280;33524;55.434;38.520;2023-04-26T05:40:42;98696.16;;;11.39;98.23
47761;BME280;33524;55.434;38.520;2023-04-26T05:43:10;98698.75;;;11.30;99.72
47761;BME280;33524;55.434;38.520;2023-04-26T05:45:38;98702.25;;;11.31;99.79
47761;BME280;33524;55.434;38.520;2023-04-26T05:48:06;98694.22;;;11.41;98.95
47761;BME280;33524;55.434;38.520;2023-04-26T05:50:35;98695.94;;;11.24;100.00
47761;BME280;33524;55.434;38.520;2023-04-26T05:53:06;98697.06;;;11.47;97.78
47761;BME280;33524;55.434;38.520;2023-04-26T05:55:35;98678.62;;;11.47;97.07
47761;BME280;33524;55.434;38.520;2023-04-26T05:58:04;98694.47;;;11.64;97.13
47761;BME280;33524;55.434;38.520;2023-04-26T06:00:32;98688.88;;;11.67;97.29
47761;BME280;33524;55.434;38.520;2023-04-26T06:03:12;98690.22;;;11.71;96.87
47761;BME280;33524;55.434;38.520;2023-04-26T06:05:41;98697.50;;;11.85;94.49
47761;BME280;33524;55.434;38.520;2023-04-26T06:08:10;98698.84;;;11.89;94.50
47761;BME280;33524;55.434;38.520;2023-04-26T06:10:38;98699.66;;;11.90;96.21
47761;BME280;33524;55.434;38.520;2023-04-26T06:13:06;98703.78;;;11.93;95.43
47761;BME280;33524;55.434;38.520;2023-04-26T06:15:35;98703.16;;;11.99;95.34
47761;BME280;33524;55.434;38.520;2023-04-26T06:18:04;98702.19;;;12.08;94.40
47761;BME280;33524;55.434;38.520;2023-04-26T06:20:33;98703.50;;;12.12;94.43
47761;BME280;33524;55.434;38.520;2023-04-26T06:23:05;98704.50;;;12.19;95.06
47761;BME280;33524;55.434;38.520;2023-04-26T06:25:33;98703.84;;;12.25;94.57
47761;BME280;33524;55.434;38.520;2023-04-26T06:31:34;98701.56;;;12.47;95.41
47761;BME280;33524;55.434;38.520;2023-04-26T06:34:03;98699.59;;;12.65;92.96
47761;BME280;33524;55.434;38.520;2023-04-26T06:36:31;98702.53;;;12.79;93.58
47761;BME280;33524;55.434;38.520;2023-04-26T06:38:59;98705.00;;;12.88;92.02
47761;BME280;33524;55.434;38.520;2023-04-26T06:41:28;98707.13;;;12.93;92.80
47761;BME280;33524;55.434;38.520;2023-04-26T06:43:56;98699.34;;;13.08;90.54
47761;BME280;33524;55.434;38.520;2023-04-26T06:46:28;98698.81;;;13.29;90.34
47761;BME280;33524;55.434;38.520;2023-04-26T06:48:57;98697.41;;;13.49;88.90
47761;BME280;33524;55.434;38.520;2023-04-26T06:51:25;98699.81;;;13.67;90.37
47761;BME280;33524;55.434;38.520;2023-04-26T06:53:53;98701.16;;;13.95;90.42
47761;BME280;33524;55.434;38.520;2023-04-26T06:56:22;98699.06;;;14.13;89.62
47761;BME280;33524;55.434;38.520;2023-04-26T06:59:04;98698.59;;;14.09;88.26
47761;BME280;33524;55.434;38.520;2023-04-26T07:01:33;98705.75;;;14.01;87.84
47761;BME280;33524;55.434;38.520;2023-04-26T07:04:03;98702.81;;;13.96;85.26
47761;BME280;33524;55.434;38.520;2023-04-26T07:06:31;98706.50;;;14.09;86.45
47761;BME280;33524;55.434;38.520;2023-04-26T07:09:00;98708.00;;;14.12;87.11
47761;BME280;33524;55.434;38.520;2023-04-26T07:11:30;98705.87;;;14.07;87.25
47761;BME280;33524;55.434;38.520;2023-04-26T07:13:58;98706.94;;;13.98;88.69
47761;BME280;33524;55.434;38.520;2023-04-26T07:16:27;98712.00;;;13.77;88.72
47761;BME280;33524;55.434;38.520;2023-04-26T07:18:55;98713.87;;;13.60;89.54
47761;BME280;33524;55.434;38.520;2023-04-26T07:21:26;98711.66;;;13.40;90.98
47761;BME280;33524;55.434;38.520;2023-04-26T07:23:55;98715.94;;;13.41;91.57
47761;BME280;33524;55.434;38.520;2023-04-26T07:26:40;98720.91;;;13.28;92.19
47761;BME280;33524;55.434;38.520;2023-04-26T07:29:08;98711.81;;;13.39;85.94
47761;BME280;33524;55.434;38.520;2023-04-26T07:31:37;98725.88;;;13.31;90.37
47761;BME280;33524;55.434;38.520;2023-04-26T07:34:05;98727.69;;;13.22;90.98
47761;BME280;33524;55.434;38.520;2023-04-26T07:36:33;98726.88;;;13.30;90.13
47761;BME280;33524;55.434;38.520;2023-04-26T07:39:01;98727.84;;;13.29;83.81
47761;BME280;33524;55.434;38.520;2023-04-26T07:41:31;98732.81;;;13.32;89.88
47761;BME280;33524;55.434;38.520;2023-04-26T07:43:59;98722.22;;;13.40;87.69
47761;BME280;33524;55.434;38.520;2023-04-26T07:46:28;98730.97;;;13.32;85.91
47761;BME280;33524;55.434;38.520;2023-04-26T07:48:56;98737.56;;;13.37;88.53
47761;BME280;33524;55.434;38.520;2023-04-26T07:51:24;98729.88;;;13.10;88.94
47761;BME280;33524;55.434;38.520;2023-04-26T07:53:53;98728.34;;;13.24;86.41
47761;BME280;33524;55.434;38.520;2023-04-26T07:56:24;98735.81;;;13.04;91.11
47761;BME280;33524;55.434;38.520;2023-04-26T07:58:52;98738.78;;;12.77;95.19
47761;BME280;33524;55.434;38.520;2023-04-26T08:01:20;98733.84;;;12.90;93.26
47761;BME280;33524;55.434;38.520;2023-04-26T08:03:49;98734.84;;;12.89;90.64
47761;BME280;33524;55.434;38.520;2023-04-26T08:06:17;98737.97;;;12.84;92.05
47761;BME280;33524;55.434;38.520;2023-04-26T08:08:46;98744.69;;;13.20;89.65
47761;BME280;33524;55.434;38.520;2023-04-26T08:11:18;98746.31;;;13.21;92.67
47761;BME280;33524;55.434;38.520;2023-04-26T08:13:46;98738.06;;;13.40;90.19
47761;BME280;33524;55.434;38.520;2023-04-26T08:16:14;98740.22;;;13.37;86.99
47761;BME280;33524;55.434;38.520;2023-04-26T08:18:43;98744.22;;;13.00;92.78
47761;BME280;33524;55.434;38.520;2023-04-26T08:21:14;98740.25;;;12.96;87.94
47761;BME280;33524;55.434;38.520;2023-04-26T08:23:42;98749.50;;;12.91;94.00
47761;BME280;33524;55.434;38.520;2023-04-26T08:26:11;98751.66;;;12.88;93.94
47761;BME280;33524;55.434;38.520;2023-04-26T08:28:39;98751.31;;;12.75;95.49
47761;BME280;33524;55.434;38.520;2023-04-26T08:31:08;98755.12;;;12.80;94.55
47761;BME280;33524;55.434;38.520;2023-04-26T08:33:36;98741.44;;;12.93;93.22
47761;BME280;33524;55.434;38.520;2023-04-26T08:36:05;98752.78;;;13.02;92.85
47761;BME280;33524;55.434;38.520;2023-04-26T08:38:33;98760.56;;;12.70;95.08
47761;BME280;33524;55.434;38.520;2023-04-26T08:41:03;98755.94;;;12.64;95.32
47761;BME280;33524;55.434;38.520;2023-04-26T08:43:33;98764.50;;;12.66;92.28
47761;BME280;33524;55.434;38.520;2023-04-26T08:46:06;98762.88;;;12.82;96.08
47761;BME280;33524;55.434;38.520;2023-04-26T08:48:37;98757.75;;;12.80;93.68
47761;BME280;33524;55.434;38.520;2023-04-26T08:51:07;98755.59;;;12.35;98.61
47761;BME280;33524;55.434;38.520;2023-04-26T08:53:39;98765.50;;;12.57;90.95
47761;BME280;33524;55.434;38.520;2023-04-26T08:56:09;98756.28;;;12.45;96.62
47761;BME280;33524;55.434;38.520;2023-04-26T08:58:39;98763.19;;;12.95;84.74
47761;BME280;33524;55.434;38.520;2023-04-26T09:01:08;98758.91;;;12.53;93.26
47761;BME280;33524;55.434;38.520;2023-04-26T09:03:37;98761.81;;;12.17;95.87
47761;BME280;33524;55.434;38.520;2023-04-26T09:06:06;98754.72;;;12.01;96.11
47761;BME280;33524;55.434;38.520;2023-04-26T09:08:35;98766.19;;;11.92;98.68
47761;BME280;33524;55.434;38.520;2023-04-26T09:11:08;98771.59;;;12.41;85.15
47761;BME280;33524;55.434;38.520;2023-04-26T09:13:36;98774.97;;;12.09;91.51
47761;BME280;33524;55.434;38.520;2023-04-26T09:16:04;98779.88;;;11.96;97.98
47761;BME280;33524;55.434;38.520;2023-04-26T09:18:33;98782.09;;;11.74;100.00
47761;BME280;33524;55.434;38.520;2023-04-26T09:21:06;98790.66;;;11.84;99.49
47761;BME280;33524;55.434;38.520;2023-04-26T09:23:35;98789.31;;;12.15;94.22
47761;BME280;33524;55.434;38.520;2023-04-26T09:26:19;98799.88;;;11.80;99.85
47761;BME280;33524;55.434;38.520;2023-04-26T09:28:48;98795.50;;;11.63;100.00
47761;BME280;33524;55.434;38.520;2023-04-26T09:31:35;98793.31;;;11.50;100.00
47761;BME280;33524;55.434;38.520;2023-04-26T09:34:06;98795.91;;;12.10;94.06
47761;BME280;33524;55.434;38.520;2023-04-26T09:36:54;98795.91;;;12.10;96.43
47761;BME280;33524;55.434;38.520;2023-04-26T09:39:42;98803.69;;;12.28;97.97
47761;BME280;33524;55.434;38.520;2023-04-26T09:42:10;98796.50;;;12.47;94.43
47761;BME280;33524;55.434;38.520;2023-04-26T09:44:38;98802.13;;;12.01;100.00
47761;BME280;33524;55.434;38.520;2023-04-26T09:47:08;98803.28;;;12.07;100.00
47761;BME280;33524;55.434;38.520;2023-04-26T09:49:47;98809.44;;;12.16;100.00
47761;BME280;33524;55.434;38.520;2023-04-26T09:52:18;98792.38;;;11.94;100.00
47761;BME280;33524;55.434;38.520;2023-04-26T09:54:48;98805.78;;;11.82;100.00
47761;BME280;33524;55.434;38.520;2023-04-26T09:57:17;98814.34;;;11.76;99.48
47761;BME280;33524;55.434;38.520;2023-04-26T09:59:48;98815.88;;;11.87;100.00
47761;BME280;33524;55.434;38.520;2023-04-26T10:04:54;98825.09;;;12.25;95.14
47761;BME280;33524;55.434;38.520;2023-04-26T10:07:24;98826.53;;;12.03;100.00
47761;BME280;33524;55.434;38.520;2023-04-26T10:09:53;98827.81;;;12.58;90.74
47761;BME280;33524;55.434;38.520;2023-04-26T10:12:22;98826.31;;;12.56;95.06
47761;BME280;33524;55.434;38.520;2023-04-26T10:14:50;98834.44;;;12.87;92.78
47761;BME280;33524;55.434;38.520;2023-04-26T10:17:18;98836.91;;;12.88;93.02
47761;BME280;33524;55.434;38.520;2023-04-26T10:19:53;98836.25;;;13.19;92.51
47761;BME280;33524;55.434;38.520;2023-04-26T10:22:27;98848.59;;;13.19;89.65
47761;BME280;33524;55.434;38.520;2023-04-26T10:24:56;98842.37;;;13.36;84.59
47761;BME280;33524;55.434;38.520;2023-04-26T10:30:15;98855.81;;;13.82;83.29
47761;BME280;33524;55.434;38.520;2023-04-26T10:35:26;98857.63;;;13.82;83.87
47761;BME280;33524;55.434;38.520;2023-04-26T10:40:36;98866.19;;;13.92;84.31
47761;BME280;33524;55.434;38.520;2023-04-26T10:45:46;98877.56;;;14.01;80.55
47761;BME280;33524;55.434;38.520;2023-04-26T10:48:30;98877.19;;;14.12;82.39
47761;BME280;33524;55.434;38.520;2023-04-26T10:59:11;98888.47;;;14.06;79.03
47761;BME280;33524;55.434;38.520;2023-04-26T11:01:59;98895.16;;;13.28;83.86
47761;BME280;33524;55.434;38.520;2023-04-26T11:04:53;98903.75;;;13.30;83.56
47761;BME280;33524;55.434;38.520;2023-04-26T11:07:37;98906.97;;;12.83;86.36
47761;BME280;33524;55.434;38.520;2023-04-26T11:10:09;98906.50;;;13.04;82.84
47761;BME280;33524;55.434;38.520;2023-04-26T11:12:40;98911.97;;;13.19;80.70
47761;BME280;33524;55.434;38.520;2023-04-26T11:15:11;98910.97;;;13.03;81.78
47761;BME280;33524;55.434;38.520;2023-04-26T11:17:39;98923.84;;;12.98;85.03
47761;BME280;33524;55.434;38.520;2023-04-26T11:20:16;98922.88;;;12.40;88.87
47761;BME280;33524;55.434;38.520;2023-04-26T11:22:44;98914.66;;;12.51;85.40
47761;BME280;33524;55.434;38.520;2023-04-26T11:25:13;98936.19;;;11.78;94.90
47761;BME280;33524;55.434;38.520;2023-04-26T11:27:44;98938.50;;;11.81;96.65
47761;BME280;33524;55.434;38.520;2023-04-26T11:30:13;98940.31;;;12.07;92.97
47761;BME280;33524;55.434;38.520;2023-04-26T11:32:46;98937.34;;;12.36;91.33
47761;BME280;33524;55.434;38.520;2023-04-26T11:35:15;98934.00;;;12.77;86.12
47761;BME280;33524;55.434;38.520;2023-04-26T11:37:44;98939.03;;;12.96;82.83
47761;BME280;33524;55.434;38.520;2023-04-26T11:40:15;98939.69;;;13.23;87.32
47761;BME280;33524;55.434;38.520;2023-04-26T11:42:44;98946.00;;;13.71;81.73
47761;BME280;33524;55.434;38.520;2023-04-26T11:45:14;98946.94;;;13.21;89.74
47761;BME280;33524;55.434;38.520;2023-04-26T11:47:44;98948.31;;;13.66;87.37
47761;BME280;33524;55.434;38.520;2023-04-26T11:50:13;98954.91;;;13.53;85.19
47761;BME280;33524;55.434;38.520;2023-04-26T11:52:41;98939.41;;;13.75;84.38
47761;BME280;33524;55.434;38.520;2023-04-26T11:55:10;98951.94;;;13.89;79.92
47761;BME280;33524;55.434;38.520;2023-04-26T11:57:38;98962.06;;;14.25;79.30
47761;BME280;33524;55.434;38.520;2023-04-26T12:00:08;98966.03;;;14.29;78.60
47761;BME280;33524;55.434;38.520;2023-04-26T12:02:48;98972.31;;;14.37;79.22
47761;BME280;33524;55.434;38.520;2023-04-26T12:05:28;98968.16;;;14.82;77.28
47761;BME280;33524;55.434;38.520;2023-04-26T12:08:00;98957.09;;;15.32;73.32
47761;BME280;33524;55.434;38.520;2023-04-26T12:10:34;98959.75;;;15.09;73.12
47761;BME280;33524;55.434;38.520;2023-04-26T12:13:03;98959.03;;;15.16;73.27
47761;BME280;33524;55.434;38.520;2023-04-26T12:15:32;98967.13;;;14.91;73.88
47761;BME280;33524;55.434;38.520;2023-04-26T12:18:09;98961.72;;;14.84;71.50
47761;BME280;33524;55.434;38.520;2023-04-26T12:20:41;98960.41;;;15.11;68.83
47761;BME280;33524;55.434;38.520;2023-04-26T12:23:15;98964.22;;;15.32;68.46
47761;BME280;33524;55.434;38.520;2023-04-26T12:25:55;98965.28;;;15.23;67.30
47761;BME280;33524;55.434;38.520;2023-04-26T12:28:23;98970.88;;;15.89;66.39
47761;BME280;33524;55.434;38.520;2023-04-26T12:30:52;98966.88;;;17.19;63.75
47761;BME280;33524;55.434;38.520;2023-04-26T12:33:22;98967.09;;;17.02;62.20
47761;BME280;33524;55.434;38.520;2023-04-26T12:35:52;98969.44;;;16.16;63.60
47761;BME280;33524;55.434;38.520;2023-04-26T12:38:20;98978.34;;;16.53;62.38
47761;BME280;33524;55.434;38.520;2023-04-26T12:40:48;98973.56;;;17.14;59.50
47761;BME280;33524;55.434;38.520;2023-04-26T12:43:17;98976.75;;;17.96;57.06
47761;BME280;33524;55.434;38.520;2023-04-26T12:45:46;98976.50;;;18.54;54.68
47761;BME280;33524;55.434;38.520;2023-04-26T12:48:15;98985.47;;;16.67;59.63
47761;BME280;33524;55.434;38.520;2023-04-26T12:50:44;98991.19;;;17.37;59.29
47761;BME280;33524;55.434;38.520;2023-04-26T12:53:13;99000.38;;;16.09;61.60
47761;BME280;33524;55.434;38.520;2023-04-26T12:55:41;98984.31;;;15.87;62.43
47761;BME280;33524;55.434;38.520;2023-04-26T12:58:09;98999.25;;;15.88;63.98
47761;BME280;33524;55.434;38.520;2023-04-26T13:00:38;99010.13;;;15.47;64.47
47761;BME280;33524;55.434;38.520;2023-04-26T13:03:06;99005.09;;;15.61;64.73
47761;BME280;33524;55.434;38.520;2023-04-26T13:05:35;99009.19;;;15.63;65.26
47761;BME280;33524;55.434;38.520;2023-04-26T13:08:03;99012.19;;;15.37;66.80
47761;BME280;33524;55.434;38.520;2023-04-26T13:10:31;99019.72;;;14.94;68.26
47761;BME280;33524;55.434;38.520;2023-04-26T13:13:00;99020.00;;;14.68;69.35
47761;BME280;33524;55.434;38.520;2023-04-26T13:15:28;99036.44;;;14.39;70.71
47761;BME280;33524;55.434;38.520;2023-04-26T13:17:56;99034.28;;;14.90;68.86
47761;BME280;33524;55.434;38.520;2023-04-26T13:20:24;99024.25;;;14.77;69.79
47761;BME280;33524;55.434;38.520;2023-04-26T13:22:57;99019.75;;;16.09;65.43
47761;BME280;33524;55.434;38.520;2023-04-26T13:25:25;99018.47;;;16.20;64.11
47761;BME280;33524;55.434;38.520;2023-04-26T13:27:53;99015.25;;;16.10;64.79